createdAt,value
2019-04-25T00:00:45.149Z,10.60
2019-04-25T00:03:13.115Z,10.60
2019-04-25T00:05:42.499Z,10.60
2019-04-25T00:08:11.482Z,10.70
2019-04-25T00:10:39.262Z,10.60
2019-04-25T00:13:07.048Z,10.70
2019-04-25T00:15:34.715Z,10.70
2019-04-25T00:18:02.404Z,10.80
2019-04-25T00:20:31.961Z,10.90
2019-04-25T00:23:11.772Z,10.90
2019-04-25T00:26:07.645Z,11.00
2019-04-25T00:28:35.343Z,11.10
2019-04-25T00:31:04.893Z,11.10
2019-04-25T00:33:32.624Z,11.10
2019-04-25T00:36:02.108Z,11.20
2019-04-25T00:38:30.012Z,11.20
2019-04-25T00:40:57.651Z,11.10
2019-04-25T00:43:25.186Z,11.10
2019-04-25T00:45:52.834Z,11.10
2019-04-25T00:48:22.202Z,11.10
2019-04-25T00:50:50.032Z,11.10
2019-04-25T00:53:19.283Z,11.10
2019-04-25T00:55:47.545Z,11.10
2019-04-25T00:58:27.463Z,11.10
2019-04-25T01:01:07.597Z,11.00
2019-04-25T01:03:35.963Z,11.10
2019-04-25T01:06:03.950Z,11.10
2019-04-25T01:08:32.163Z,11.10
2019-04-25T01:11:01.646Z,11.10
2019-04-25T01:13:29.869Z,11.20
2019-04-25T01:15:58.321Z,11.20
2019-04-25T01:18:27.400Z,11.20
2019-04-25T01:20:55.478Z,11.20
2019-04-25T01:23:23.750Z,11.20
2019-04-25T01:25:51.599Z,11.10
2019-04-25T01:28:19.763Z,11.20
2019-04-25T01:30:47.894Z,11.10
2019-04-25T01:33:16.067Z,11.10
2019-04-25T01:36:07.436Z,11.10
2019-04-25T01:39:01.624Z,11.20
2019-04-25T01:41:49.179Z,11.20
2019-04-25T01:44:21.367Z,11.20
2019-04-25T01:46:49.805Z,11.20
2019-04-25T01:49:17.495Z,11.10
2019-04-25T01:51:45.421Z,11.00
2019-04-25T01:54:14.086Z,11.10
2019-04-25T01:56:41.921Z,11.10
2019-04-25T01:59:09.869Z,11.10
2019-04-25T02:01:39.239Z,11.00
2019-04-25T02:04:07.282Z,11.00
2019-04-25T02:06:34.870Z,10.90
2019-04-25T02:09:05.282Z,10.90
2019-04-25T02:11:58.902Z,10.80
2019-04-25T02:14:27.013Z,10.80
2019-04-25T02:16:55.939Z,10.80
2019-04-25T02:19:24.601Z,10.70
2019-04-25T02:21:54.502Z,10.80
2019-04-25T02:24:23.630Z,10.70
2019-04-25T02:26:53.253Z,10.70
2019-04-25T02:29:21.123Z,10.60
2019-04-25T02:31:49.102Z,10.50
2019-04-25T02:39:31.160Z,10.50
2019-04-25T02:42:01.038Z,10.40
2019-04-25T02:44:30.888Z,10.40
2019-04-25T02:47:20.835Z,10.40
2019-04-25T02:50:08.944Z,10.40
2019-04-25T02:52:39.194Z,10.50
2019-04-25T02:55:10.663Z,10.60
2019-04-25T02:57:37.254Z,10.60
2019-04-25T03:00:08.662Z,10.60
2019-04-25T03:02:37.087Z,10.70
2019-04-25T03:05:08.098Z,10.70
2019-04-25T03:07:35.242Z,10.70
2019-04-25T03:10:06.799Z,10.80
2019-04-25T03:12:36.593Z,10.80
2019-04-25T03:15:08.225Z,10.80
2019-04-25T03:17:34.808Z,10.80
2019-04-25T03:20:20.952Z,10.80
2019-04-25T03:22:48.622Z,10.80
2019-04-25T03:25:17.539Z,10.90
2019-04-25T03:27:45.918Z,10.90
2019-04-25T03:30:17.707Z,10.90
2019-04-25T03:32:45.063Z,11.00
2019-04-25T03:35:14.563Z,11.10
2019-04-25T03:37:43.639Z,11.10
2019-04-25T03:40:11.816Z,11.30
2019-04-25T03:42:40.692Z,11.40
2019-04-25T03:45:09.220Z,11.40
2019-04-25T03:47:37.112Z,11.50
2019-04-25T03:50:06.133Z,11.50
2019-04-25T03:52:34.921Z,11.60
2019-04-25T03:55:05.182Z,11.70
2019-04-25T03:57:33.180Z,11.60
2019-04-25T04:00:01.122Z,11.60
2019-04-25T04:02:28.738Z,11.70
2019-04-25T04:04:56.330Z,11.80
2019-04-25T04:07:23.975Z,11.80
2019-04-25T04:09:53.213Z,11.80
2019-04-25T04:12:21.195Z,11.90
2019-04-25T04:14:48.832Z,11.90
2019-04-25T04:17:33.872Z,12.00
2019-04-25T04:20:33.606Z,12.00
2019-04-25T04:23:09.210Z,12.00
2019-04-25T04:25:37.058Z,12.20
2019-04-25T04:28:06.112Z,12.20
2019-04-25T04:30:34.350Z,12.20
2019-04-25T04:33:03.598Z,12.20
2019-04-25T04:35:33.405Z,12.20
2019-04-25T04:38:01.303Z,12.30
2019-04-25T04:40:29.374Z,12.40
2019-04-25T04:42:56.920Z,12.50
2019-04-25T04:45:24.838Z,12.50
2019-04-25T04:47:53.334Z,12.50
2019-04-25T04:50:21.506Z,12.40
2019-04-25T04:52:49.153Z,12.40
2019-04-25T04:55:18.495Z,12.40
2019-04-25T04:57:46.730Z,12.40
2019-04-25T05:00:15.491Z,12.50
2019-04-25T05:03:10.479Z,12.50
2019-04-25T05:06:04.878Z,12.50
2019-04-25T05:08:37.271Z,12.50
2019-04-25T05:11:07.466Z,12.50
2019-04-25T05:13:35.632Z,12.50
2019-04-25T05:16:05.635Z,12.40
2019-04-25T05:18:38.089Z,12.40
2019-04-25T05:21:04.220Z,12.40
2019-04-25T05:23:32.226Z,12.40
2019-04-25T05:25:59.752Z,12.40
2019-04-25T05:28:27.370Z,12.40
2019-04-25T05:31:15.925Z,12.40
2019-04-25T05:33:43.800Z,12.40
2019-04-25T05:36:11.941Z,12.50
2019-04-25T05:38:39.468Z,12.50
2019-04-25T05:41:31.788Z,12.50
2019-04-25T05:43:59.804Z,12.50
2019-04-25T05:46:27.773Z,12.50
2019-04-25T05:48:55.388Z,12.50
2019-04-25T05:51:23.925Z,12.50
2019-04-25T05:53:52.419Z,12.50
2019-04-25T05:56:20.182Z,12.50
2019-04-25T05:58:47.735Z,12.50
2019-04-25T06:01:15.238Z,12.40
2019-04-25T06:03:43.913Z,12.40
2019-04-25T06:06:11.525Z,12.40
2019-04-25T06:08:45.191Z,12.40
2019-04-25T06:14:10.426Z,12.50
2019-04-25T06:16:39.255Z,12.50
2019-04-25T06:19:18.398Z,12.50
2019-04-25T06:21:43.497Z,12.40
2019-04-25T06:24:34.241Z,12.30
2019-04-25T06:27:23.916Z,12.30
2019-04-25T06:30:04.369Z,12.40
2019-04-25T06:32:34.138Z,12.50
2019-04-25T06:35:01.904Z,12.50
2019-04-25T06:37:29.523Z,12.50
2019-04-25T06:39:57.813Z,12.60
2019-04-25T06:42:25.767Z,12.70
2019-04-25T06:44:59.108Z,12.70
2019-04-25T06:47:52.169Z,12.80
2019-04-25T06:50:20.529Z,12.80
2019-04-25T06:52:49.259Z,12.90
2019-04-25T06:55:16.999Z,13.20
2019-04-25T06:57:44.520Z,13.60
2019-04-25T07:00:14.819Z,13.80
2019-04-25T07:02:43.544Z,13.90
2019-04-25T07:05:25.630Z,13.80
2019-04-25T07:07:41.957Z,13.80
2019-04-25T07:10:10.260Z,13.70
2019-04-25T07:12:38.072Z,13.80
2019-04-25T07:15:06.381Z,13.90
2019-04-25T07:17:35.004Z,13.90
2019-04-25T07:20:04.649Z,14.00
2019-04-25T07:22:34.782Z,13.90
2019-04-25T07:25:03.624Z,14.00
2019-04-25T07:27:53.813Z,14.20
2019-04-25T07:30:50.067Z,14.60
2019-04-25T07:33:18.952Z,14.90
2019-04-25T07:35:46.544Z,14.90
2019-04-25T07:38:14.256Z,14.90
2019-04-25T07:40:43.269Z,15.20
2019-04-25T07:43:13.406Z,15.10
2019-04-25T07:45:41.206Z,14.80
2019-04-25T07:48:08.823Z,14.70
2019-04-25T07:50:36.723Z,14.70
2019-04-25T07:53:05.691Z,14.70
2019-04-25T07:55:36.013Z,14.80
2019-04-25T07:58:03.257Z,14.70
2019-04-25T08:00:31.377Z,14.80
2019-04-25T08:02:59.093Z,14.90
2019-04-25T08:05:27.813Z,15.00
2019-04-25T08:07:55.815Z,15.00
2019-04-25T08:10:27.874Z,15.00
2019-04-25T08:12:55.823Z,15.20
2019-04-25T08:15:30.537Z,15.20
2019-04-25T08:18:04.176Z,15.50
2019-04-25T08:20:34.315Z,15.60
2019-04-25T08:23:04.214Z,15.70
2019-04-25T08:25:33.482Z,15.70
2019-04-25T08:28:03.817Z,15.70
2019-04-25T08:30:34.985Z,15.60
2019-04-25T08:33:03.978Z,15.40
2019-04-25T08:35:34.174Z,15.50
2019-04-25T08:38:03.406Z,15.70
2019-04-25T08:40:33.123Z,15.70
2019-04-25T08:43:01.265Z,15.70
2019-04-25T08:45:29.293Z,15.70
2019-04-25T08:47:57.238Z,15.70
2019-04-25T08:50:33.178Z,15.80
2019-04-25T08:52:59.869Z,15.90
2019-04-25T08:55:47.581Z,16.00
2019-04-25T08:58:35.409Z,16.10
2019-04-25T09:01:14.743Z,16.30
2019-04-25T09:03:50.575Z,16.50
2019-04-25T09:06:18.146Z,16.60
2019-04-25T09:08:46.654Z,16.50
2019-04-25T09:11:14.682Z,16.50
2019-04-25T09:16:39.875Z,16.70
2019-04-25T09:19:07.920Z,16.90
2019-04-25T09:21:36.604Z,17.10
2019-04-25T09:24:04.898Z,17.10
2019-04-25T09:26:33.972Z,17.20
2019-04-25T09:29:15.761Z,17.10
2019-04-25T09:31:34.309Z,17.40
2019-04-25T09:34:01.409Z,17.40
2019-04-25T09:36:29.084Z,17.20
2019-04-25T09:38:59.762Z,17.00
2019-04-25T09:41:27.972Z,17.00
2019-04-25T09:43:59.908Z,16.80
2019-04-25T09:46:30.848Z,16.80
2019-04-25T09:49:04.335Z,17.10
2019-04-25T09:51:48.999Z,17.20
2019-04-25T09:54:46.310Z,17.20
2019-04-25T09:57:33.489Z,17.30
2019-04-25T10:00:03.595Z,17.20
2019-04-25T10:02:31.449Z,17.40
2019-04-25T10:05:00.469Z,17.40
2019-04-25T10:07:28.056Z,17.50
2019-04-25T10:09:56.026Z,17.70
2019-04-25T10:12:26.761Z,18.10
2019-04-25T10:15:20.508Z,18.60
2019-04-25T10:17:48.808Z,18.80
2019-04-25T10:20:18.010Z,18.80
2019-04-25T10:22:46.566Z,18.70
2019-04-25T10:25:15.807Z,18.10
2019-04-25T10:27:46.480Z,18.00
2019-04-25T10:30:19.032Z,17.70
2019-04-25T10:32:44.285Z,17.70
2019-04-25T10:35:14.690Z,17.80
2019-04-25T10:37:44.811Z,17.80
2019-04-25T10:40:13.359Z,18.00
2019-04-25T10:42:42.430Z,17.80
2019-04-25T10:45:21.313Z,17.60
2019-04-25T10:47:41.221Z,17.40
2019-04-25T10:50:09.209Z,17.50
2019-04-25T10:52:36.811Z,17.70
2019-04-25T10:55:05.452Z,17.80
2019-04-25T10:57:34.001Z,18.00
2019-04-25T11:00:07.591Z,18.00
2019-04-25T11:02:33.936Z,18.00
2019-04-25T11:05:08.204Z,17.90
2019-04-25T11:07:35.840Z,17.70
2019-04-25T11:10:04.322Z,17.70
2019-04-25T11:12:33.670Z,17.70
2019-04-25T11:15:03.910Z,17.70
2019-04-25T11:17:31.693Z,17.80
2019-04-25T11:19:59.397Z,17.60
2019-04-25T11:22:26.987Z,17.30
2019-04-25T11:24:54.602Z,17.30
2019-04-25T11:27:23.929Z,17.30
2019-04-25T11:29:53.545Z,17.50
2019-04-25T11:32:24.975Z,17.60
2019-04-25T11:34:53.474Z,17.70
2019-04-25T11:37:24.041Z,17.70
2019-04-25T11:39:58.712Z,17.80
2019-04-25T11:42:26.802Z,17.80
2019-04-25T11:44:55.587Z,17.80
2019-04-25T11:47:24.290Z,17.80
2019-04-25T11:49:52.345Z,17.80
2019-04-25T11:52:27.538Z,17.80
2019-04-25T11:54:50.026Z,17.80
2019-04-25T11:57:17.812Z,17.80
2019-04-25T11:59:48.253Z,17.90
2019-04-25T12:02:15.951Z,17.80
2019-04-25T12:04:46.221Z,17.50
2019-04-25T12:07:14.331Z,17.30
2019-04-25T12:09:42.896Z,17.20
2019-04-25T12:12:11.499Z,17.40
2019-04-25T12:14:39.129Z,17.30
2019-04-25T12:17:06.719Z,16.90
2019-04-25T12:19:37.720Z,16.20
2019-04-25T12:22:04.143Z,15.90
2019-04-25T12:24:33.445Z,15.90
2019-04-25T12:27:01.651Z,15.40
2019-04-25T12:29:29.236Z,14.80
2019-04-25T12:31:56.860Z,14.60
2019-04-25T12:34:24.503Z,14.40
2019-04-25T12:36:54.308Z,14.40
2019-04-25T12:39:24.140Z,14.20
2019-04-25T12:41:51.954Z,14.10
2019-04-25T12:44:54.935Z,14.00
2019-04-25T12:47:30.634Z,14.10
2019-04-25T12:49:58.577Z,14.10
2019-04-25T12:52:26.244Z,14.10
2019-04-25T12:54:57.221Z,14.20
2019-04-25T12:57:25.989Z,14.10
2019-04-25T12:59:55.342Z,14.00
2019-04-25T13:02:23.598Z,13.80
2019-04-25T13:04:51.287Z,13.80
2019-04-25T13:07:19.909Z,13.80
2019-04-25T13:09:48.298Z,13.90
2019-04-25T13:12:17.535Z,13.90
2019-04-25T13:14:45.164Z,14.10
2019-04-25T13:17:13.757Z,14.30
2019-04-25T13:19:41.388Z,14.30
2019-04-25T13:22:11.051Z,14.20
2019-04-25T13:24:38.661Z,13.80
2019-04-25T13:27:14.251Z,13.20
2019-04-25T13:30:03.760Z,12.60
2019-04-25T13:33:01.867Z,12.30
2019-04-25T13:35:34.336Z,12.20
2019-04-25T13:38:02.538Z,12.30
2019-04-25T13:40:30.624Z,12.30
2019-04-25T13:42:58.510Z,12.40
2019-04-25T13:45:26.034Z,12.20
2019-04-25T13:47:53.678Z,12.00
2019-04-25T13:50:24.622Z,11.80
2019-04-25T13:52:53.391Z,11.80
2019-04-25T13:55:23.677Z,11.80
2019-04-25T13:57:53.375Z,11.80
2019-04-25T14:00:24.880Z,11.90
2019-04-25T14:02:53.197Z,12.00
2019-04-25T14:05:21.226Z,12.10
2019-04-25T14:07:48.966Z,12.30
2019-04-25T14:10:17.361Z,12.50
2019-04-25T14:12:45.530Z,12.70
2019-04-25T14:15:16.710Z,12.80
2019-04-25T14:18:04.835Z,13.00
2019-04-25T14:20:36.273Z,13.10
2019-04-25T14:23:06.282Z,13.30
2019-04-25T14:25:35.239Z,13.40
2019-04-25T14:28:05.338Z,13.40
2019-04-25T14:30:34.397Z,13.40
2019-04-25T14:33:03.628Z,13.50
2019-04-25T14:35:31.499Z,13.60
2019-04-25T14:37:59.832Z,13.60
2019-04-25T14:40:27.519Z,13.60
2019-04-25T14:42:55.180Z,13.50
2019-04-25T14:45:23.158Z,13.40
2019-04-25T14:47:51.520Z,13.40
2019-04-25T14:50:19.439Z,13.40
2019-04-25T14:52:47.167Z,13.30
2019-04-25T14:55:33.747Z,13.30
2019-04-25T14:58:03.610Z,13.20
2019-04-25T15:00:38.150Z,13.30
2019-04-25T15:03:06.260Z,13.40
2019-04-25T15:05:33.869Z,13.40
2019-04-25T15:08:01.802Z,13.30
2019-04-25T15:10:29.315Z,13.10
2019-04-25T15:12:57.219Z,12.90
2019-04-25T15:15:24.734Z,12.90
2019-04-25T15:17:52.379Z,12.90
2019-04-25T15:20:20.282Z,13.00
2019-04-25T15:22:47.969Z,13.00
2019-04-25T15:25:15.960Z,13.00
2019-04-25T15:27:43.609Z,13.00
2019-04-25T15:30:15.098Z,12.90
2019-04-25T15:32:42.778Z,12.90
2019-04-25T15:35:12.374Z,12.90
2019-04-25T15:37:46.059Z,12.90
2019-04-25T15:40:28.977Z,12.90
2019-04-25T15:43:16.540Z,12.90
2019-04-25T15:46:12.676Z,12.90
2019-04-25T15:48:40.764Z,13.00
2019-04-25T15:51:08.502Z,13.10
2019-04-25T15:53:36.158Z,13.10
2019-04-25T15:56:03.798Z,13.00
2019-04-25T15:58:31.823Z,13.00
2019-04-25T16:00:59.458Z,12.90
2019-04-25T16:03:28.335Z,12.90
2019-04-25T16:05:56.008Z,13.00
2019-04-25T16:08:23.631Z,13.10
2019-04-25T16:11:06.004Z,13.10
2019-04-25T16:13:34.455Z,13.10
2019-04-25T16:16:02.420Z,13.10
2019-04-25T16:18:30.520Z,13.10
2019-04-25T16:20:58.871Z,13.10
2019-04-25T16:23:27.829Z,13.10
2019-04-25T16:25:56.574Z,13.20
2019-04-25T16:28:24.482Z,13.20
2019-04-25T16:30:52.439Z,13.30
2019-04-25T16:33:20.349Z,13.40
2019-04-25T16:35:48.266Z,13.50
2019-04-25T16:38:16.430Z,13.50
2019-04-25T16:40:44.157Z,13.40
2019-04-25T16:43:14.895Z,13.30
2019-04-25T16:45:42.908Z,13.20
2019-04-25T16:48:10.559Z,13.10
2019-04-25T16:50:38.171Z,13.00
2019-04-25T16:53:05.785Z,13.00
2019-04-25T16:55:34.268Z,13.10
2019-04-25T16:58:04.005Z,13.00
2019-04-25T17:00:48.894Z,13.00
2019-04-25T17:03:16.875Z,12.90
2019-04-25T17:05:44.602Z,12.90
2019-04-25T17:08:14.309Z,12.90
2019-04-25T17:10:41.936Z,12.90
2019-04-25T17:13:09.878Z,12.90
2019-04-25T17:15:47.370Z,12.90
2019-04-25T17:18:20.859Z,12.90
2019-04-25T17:20:54.975Z,12.80
2019-04-25T17:23:22.839Z,12.80
2019-04-25T17:25:50.858Z,12.70
2019-04-25T17:28:19.233Z,12.60
2019-04-25T17:30:49.175Z,12.60
2019-04-25T17:33:36.355Z,12.50
2019-04-25T17:36:12.636Z,12.50
2019-04-25T17:38:43.485Z,12.50
2019-04-25T17:41:11.094Z,12.40
2019-04-25T17:43:39.259Z,12.40
2019-04-25T17:46:10.881Z,12.30
2019-04-25T17:48:38.308Z,12.30
2019-04-25T17:51:05.963Z,12.30
2019-04-25T17:53:34.758Z,12.20
2019-04-25T17:56:02.617Z,12.20
2019-04-25T17:58:30.576Z,12.10
2019-04-25T18:00:58.412Z,12.00
2019-04-25T18:03:27.239Z,12.00
2019-04-25T18:05:54.874Z,11.90
2019-04-25T18:08:23.759Z,11.80
2019-04-25T18:10:51.537Z,11.80
2019-04-25T18:13:19.521Z,11.80
2019-04-25T18:16:09.827Z,11.70
2019-04-25T18:18:48.300Z,11.70
2019-04-25T18:21:15.967Z,11.70
2019-04-25T18:24:01.794Z,11.70
2019-04-25T18:26:39.215Z,11.60
2019-04-25T18:29:10.507Z,11.50
2019-04-25T18:31:38.181Z,11.50
2019-04-25T18:34:08.979Z,11.50
2019-04-25T18:36:59.575Z,11.40
2019-04-25T18:39:39.818Z,11.40
2019-04-25T18:42:39.915Z,11.40
2019-04-25T18:45:10.108Z,11.30
2019-04-25T18:47:38.275Z,11.20
2019-04-25T18:50:07.126Z,11.10
2019-04-25T18:52:56.993Z,11.00
2019-04-25T18:55:37.456Z,11.00
2019-04-25T18:58:15.823Z,11.10
2019-04-25T19:00:52.337Z,11.00
2019-04-25T19:03:39.677Z,11.10
2019-04-25T19:06:10.647Z,11.00
2019-04-25T19:08:38.562Z,11.00
2019-04-25T19:11:07.363Z,11.00
2019-04-25T19:13:35.527Z,11.00
2019-04-25T19:16:03.582Z,11.00
2019-04-25T19:18:31.720Z,10.90
2019-04-25T19:20:59.643Z,10.90
2019-04-25T19:23:27.312Z,10.90
2019-04-25T19:25:55.431Z,10.90
2019-04-25T19:28:23.160Z,10.90
2019-04-25T19:30:51.487Z,10.80
2019-04-25T19:33:19.108Z,10.80
2019-04-25T19:35:47.660Z,10.70
2019-04-25T19:38:15.379Z,10.70
2019-04-25T19:40:50.776Z,10.70
2019-04-25T19:43:36.910Z,10.70
2019-04-25T19:46:04.542Z,10.80
2019-04-25T19:48:32.290Z,10.70
2019-04-25T19:50:59.967Z,10.70
2019-04-25T19:53:27.798Z,10.70
2019-04-25T19:55:55.657Z,10.70
2019-04-25T19:58:23.579Z,10.60
2019-04-25T20:00:51.196Z,10.50
2019-04-25T20:03:49.181Z,10.50
2019-04-25T20:06:22.224Z,10.40
2019-04-25T20:08:54.871Z,10.40
2019-04-25T20:11:28.494Z,10.30
2019-04-25T20:13:56.105Z,10.30
2019-04-25T20:16:23.750Z,10.20
2019-04-25T20:18:51.839Z,10.20
2019-04-25T20:21:19.874Z,10.10
2019-04-25T20:23:47.933Z,10.10
2019-04-25T20:26:25.356Z,10.20
2019-04-25T20:28:53.403Z,10.30
2019-04-25T20:31:21.070Z,10.30
2019-04-25T20:34:02.352Z,10.40
2019-04-25T20:36:18.802Z,10.40
2019-04-25T20:38:47.199Z,10.30
2019-04-25T20:41:15.059Z,10.30
2019-04-25T20:43:43.178Z,10.30
2019-04-25T20:46:10.895Z,10.30
2019-04-25T20:48:38.861Z,10.30
2019-04-25T20:51:06.504Z,10.30
2019-04-25T20:53:34.131Z,10.30
2019-04-25T20:56:02.132Z,10.10
2019-04-25T20:58:34.294Z,10.10
2019-04-25T21:01:03.077Z,10.10
2019-04-25T21:03:36.557Z,10.20
2019-04-25T21:06:15.328Z,10.30
2019-04-25T21:08:42.991Z,10.40
2019-04-25T21:11:10.804Z,10.40
2019-04-25T21:14:01.393Z,10.50
2019-04-25T21:16:47.338Z,10.50
2019-04-25T21:19:17.444Z,10.40
2019-04-25T21:21:45.166Z,10.40
2019-04-25T21:24:19.007Z,10.30
2019-04-25T21:26:46.919Z,10.30
2019-04-25T21:29:14.878Z,10.20
2019-04-25T21:31:42.509Z,10.20
2019-04-25T21:34:10.142Z,10.30
2019-04-25T21:36:38.688Z,10.20
2019-04-25T21:39:08.766Z,10.20
2019-04-25T21:41:59.746Z,10.10
2019-04-25T21:44:27.928Z,10.10
2019-04-25T21:46:56.320Z,10.00
2019-04-25T21:49:25.286Z,9.90
2019-04-25T21:51:54.125Z,9.80
2019-04-25T21:54:22.590Z,9.80
2019-04-25T21:56:50.996Z,9.80
2019-04-25T21:59:19.013Z,9.80
2019-04-25T22:01:46.857Z,9.80
2019-04-25T22:04:14.478Z,9.80
2019-04-25T22:06:42.403Z,9.70
2019-04-25T22:09:15.417Z,9.60
2019-04-25T22:11:43.316Z,9.50
2019-04-25T22:14:11.445Z,9.60
2019-04-25T22:16:39.429Z,9.60
2019-04-25T22:19:07.870Z,9.50
2019-04-25T22:21:38.423Z,9.40
2019-04-25T22:24:13.747Z,9.40
2019-04-25T22:26:36.508Z,9.30
2019-04-25T22:29:05.480Z,9.10
2019-04-25T22:31:39.102Z,8.90
2019-04-25T22:34:20.943Z,8.80
2019-04-25T22:36:49.213Z,8.70
2019-04-25T22:39:17.194Z,8.40
2019-04-25T22:41:46.788Z,8.20
2019-04-25T22:44:15.572Z,8.10
2019-04-25T22:46:43.503Z,8.00
2019-04-25T22:49:11.828Z,7.90
2019-04-25T22:51:40.005Z,7.60
2019-04-25T22:54:08.243Z,7.60
2019-04-25T22:56:36.142Z,7.60
2019-04-25T22:59:04.933Z,7.70
2019-04-25T23:01:49.998Z,7.80
2019-04-25T23:04:47.970Z,7.90
2019-04-25T23:07:16.926Z,8.00
2019-04-25T23:09:45.392Z,8.00
2019-04-25T23:12:13.609Z,8.10
2019-04-25T23:14:41.567Z,8.10
2019-04-25T23:17:09.557Z,8.10
2019-04-25T23:19:37.152Z,8.10
2019-04-25T23:22:05.699Z,8.00
2019-04-25T23:24:36.622Z,8.10
2019-04-25T23:27:26.095Z,8.10
2019-04-25T23:29:53.722Z,8.10
2019-04-25T23:32:21.623Z,7.90
2019-04-25T23:34:50.356Z,7.90
2019-04-25T23:37:18.101Z,7.70
2019-04-25T23:39:46.153Z,7.80
2019-04-25T23:42:13.781Z,7.90
2019-04-25T23:44:41.821Z,7.90
2019-04-25T23:47:10.117Z,7.80
2019-04-25T23:49:37.906Z,7.70
2019-04-25T23:52:07.307Z,7.70
2019-04-25T23:54:35.221Z,7.60
2019-04-25T23:57:03.157Z,7.60
2019-04-25T23:59:30.998Z,7.50
